sensor_id;sensor_type;location;lat;lon;timestamp;temperature;humidity
57390;DHT22;43217;52.694;6.214;2023-02-01T00:01:23;5.80;99.90
57390;DHT22;43217;52.694;6.214;2023-02-01T00:03:49;5.80;99.90
57390;DHT22;43217;52.694;6.214;2023-02-01T00:06:14;5.80;99.90
57390;DHT22;43217;52.694;6.214;2023-02-01T00:08:40;5.80;99.90
57390;DHT22;43217;52.694;6.214;2023-02-01T00:11:09;5.80;99.90
57390;DHT22;43217;52.694;6.214;2023-02-01T00:13:37;5.80;99.90
57390;DHT22;43217;52.694;6.214;2023-02-01T00:18:32;5.80;99.90
57390;DHT22;43217;52.694;6.214;2023-02-01T00:20:59;5.80;99.90
57390;DHT22;43217;52.694;6.214;2023-02-01T00:23:25;5.80;99.90
57390;DHT22;43217;52.694;6.214;2023-02-01T00:25:52;5.80;99.90
57390;DHT22;43217;52.694;6.214;2023-02-01T00:28:17;5.80;99.90
57390;DHT22;43217;52.694;6.214;2023-02-01T00:30:43;5.80;99.90
57390;DHT22;43217;52.694;6.214;2023-02-01T00:33:09;5.80;99.90
57390;DHT22;43217;52.694;6.214;2023-02-01T00:35:35;5.80;99.90
57390;DHT22;43217;52.694;6.214;2023-02-01T00:38:01;5.80;99.90
57390;DHT22;43217;52.694;6.214;2023-02-01T00:40:26;5.80;99.90
57390;DHT22;43217;52.694;6.214;2023-02-01T00:42:52;5.90;99.90
57390;DHT22;43217;52.694;6.214;2023-02-01T00:45:19;5.80;99.90
57390;DHT22;43217;52.694;6.214;2023-02-01T00:47:44;5.80;99.90
57390;DHT22;43217;52.694;6.214;2023-02-01T00:50:10;5.80;99.90
57390;DHT22;43217;52.694;6.214;2023-02-01T00:52:36;5.90;99.90
57390;DHT22;43217;52.694;6.214;2023-02-01T00:55:02;5.90;99.90
57390;DHT22;43217;52.694;6.214;2023-02-01T00:57:27;5.90;99.90
57390;DHT22;43217;52.694;6.214;2023-02-01T00:59:53;5.90;99.90
57390;DHT22;43217;52.694;6.214;2023-02-01T01:02:19;5.90;99.90
57390;DHT22;43217;52.694;6.214;2023-02-01T01:04:44;5.90;99.90
57390;DHT22;43217;52.694;6.214;2023-02-01T01:07:10;6.00;99.90
57390;DHT22;43217;52.694;6.214;2023-02-01T01:09:35;6.00;99.90
57390;DHT22;43217;52.694;6.214;2023-02-01T01:12:01;6.00;99.90
57390;DHT22;43217;52.694;6.214;2023-02-01T01:14:29;6.00;99.90
57390;DHT22;43217;52.694;6.214;2023-02-01T01:16:55;6.00;99.90
57390;DHT22;43217;52.694;6.214;2023-02-01T01:19:20;6.00;99.90
57390;DHT22;43217;52.694;6.214;2023-02-01T01:21:46;6.00;99.90
57390;DHT22;43217;52.694;6.214;2023-02-01T01:24:11;6.00;99.90
57390;DHT22;43217;52.694;6.214;2023-02-01T01:26:37;6.00;99.90
57390;DHT22;43217;52.694;6.214;2023-02-01T01:29:03;6.00;99.90
57390;DHT22;43217;52.694;6.214;2023-02-01T01:31:30;6.00;99.90
57390;DHT22;43217;52.694;6.214;2023-02-01T01:33:58;6.00;99.90
57390;DHT22;43217;52.694;6.214;2023-02-01T01:36:25;6.00;99.90
57390;DHT22;43217;52.694;6.214;2023-02-01T01:38:52;6.00;99.90
57390;DHT22;43217;52.694;6.214;2023-02-01T01:41:23;5.90;99.90
57390;DHT22;43217;52.694;6.214;2023-02-01T01:44:04;5.90;99.90
57390;DHT22;43217;52.694;6.214;2023-02-01T01:46:36;5.90;99.90
57390;DHT22;43217;52.694;6.214;2023-02-01T01:49:11;5.90;99.90
57390;DHT22;43217;52.694;6.214;2023-02-01T01:51:59;5.90;99.90
57390;DHT22;43217;52.694;6.214;2023-02-01T01:54:38;5.90;99.90
57390;DHT22;43217;52.694;6.214;2023-02-01T01:57:10;5.90;99.90
57390;DHT22;43217;52.694;6.214;2023-02-01T01:59:38;5.90;99.90
57390;DHT22;43217;52.694;6.214;2023-02-01T02:02:05;5.90;99.90
57390;DHT22;43217;52.694;6.214;2023-02-01T02:04:32;5.90;99.90
57390;DHT22;43217;52.694;6.214;2023-02-01T02:07:07;6.00;99.90
57390;DHT22;43217;52.694;6.214;2023-02-01T02:09:35;6.00;99.90
57390;DHT22;43217;52.694;6.214;2023-02-01T02:12:00;6.00;99.90
57390;DHT22;43217;52.694;6.214;2023-02-01T02:14:26;6.00;99.90
57390;DHT22;43217;52.694;6.214;2023-02-01T02:44:35;6.00;99.90
57390;DHT22;43217;52.694;6.214;2023-02-01T02:47:36;6.00;99.90
57390;DHT22;43217;52.694;6.214;2023-02-01T02:56:07;6.00;99.90
57390;DHT22;43217;52.694;6.214;2023-02-01T02:58:54;6.00;99.90
57390;DHT22;43217;52.694;6.214;2023-02-01T03:01:40;6.00;99.90
57390;DHT22;43217;52.694;6.214;2023-02-01T03:04:25;6.00;99.90
57390;DHT22;43217;52.694;6.214;2023-02-01T03:06:52;6.00;99.90
57390;DHT22;43217;52.694;6.214;2023-02-01T03:09:31;6.00;99.90
57390;DHT22;43217;52.694;6.214;2023-02-01T03:12:06;6.10;99.90
57390;DHT22;43217;52.694;6.214;2023-02-01T03:14:57;6.10;99.90
57390;DHT22;43217;52.694;6.214;2023-02-01T03:17:31;6.10;99.90
57390;DHT22;43217;52.694;6.214;2023-02-01T03:20:00;6.10;99.90
57390;DHT22;43217;52.694;6.214;2023-02-01T03:22:28;6.10;99.90
57390;DHT22;43217;52.694;6.214;2023-02-01T03:25:07;6.20;99.90
57390;DHT22;43217;52.694;6.214;2023-02-01T03:27:37;6.20;99.90
57390;DHT22;43217;52.694;6.214;2023-02-01T03:30:21;6.20;99.90
57390;DHT22;43217;52.694;6.214;2023-02-01T03:32:50;6.20;99.90
57390;DHT22;43217;52.694;6.214;2023-02-01T03:35:54;6.20;99.90
57390;DHT22;43217;52.694;6.214;2023-02-01T03:38:29;6.20;99.90
57390;DHT22;43217;52.694;6.214;2023-02-01T03:41:23;6.20;99.90
57390;DHT22;43217;52.694;6.214;2023-02-01T03:43:55;6.20;99.90
57390;DHT22;43217;52.694;6.214;2023-02-01T03:46:35;6.20;99.90
57390;DHT22;43217;52.694;6.214;2023-02-01T03:49:07;6.20;99.90
57390;DHT22;43217;52.694;6.214;2023-02-01T03:51:36;6.20;99.90
57390;DHT22;43217;52.694;6.214;2023-02-01T03:54:05;6.20;99.90
57390;DHT22;43217;52.694;6.214;2023-02-01T03:56:33;6.20;99.90
57390;DHT22;43217;52.694;6.214;2023-02-01T03:59:02;6.30;99.90
57390;DHT22;43217;52.694;6.214;2023-02-01T04:01:29;6.20;99.90
57390;DHT22;43217;52.694;6.214;2023-02-01T04:03:56;6.30;99.90
57390;DHT22;43217;52.694;6.214;2023-02-01T04:06:23;6.30;99.90
57390;DHT22;43217;52.694;6.214;2023-02-01T04:08:50;6.20;99.90
57390;DHT22;43217;52.694;6.214;2023-02-01T04:11:16;6.30;99.90
57390;DHT22;43217;52.694;6.214;2023-02-01T04:13:42;6.30;99.90
57390;DHT22;43217;52.694;6.214;2023-02-01T04:16:09;6.20;99.90
57390;DHT22;43217;52.694;6.214;2023-02-01T04:18:35;6.20;99.90
57390;DHT22;43217;52.694;6.214;2023-02-01T04:21:01;6.20;99.90
57390;DHT22;43217;52.694;6.214;2023-02-01T04:23:27;6.20;99.90
57390;DHT22;43217;52.694;6.214;2023-02-01T04:25:53;6.20;99.90
57390;DHT22;43217;52.694;6.214;2023-02-01T04:28:20;6.20;99.90
57390;DHT22;43217;52.694;6.214;2023-02-01T04:30:46;6.30;99.90
57390;DHT22;43217;52.694;6.214;2023-02-01T04:33:11;6.30;99.90
57390;DHT22;43217;52.694;6.214;2023-02-01T04:35:39;6.20;99.90
57390;DHT22;43217;52.694;6.214;2023-02-01T04:38:05;6.30;99.90
57390;DHT22;43217;52.694;6.214;2023-02-01T04:40:31;6.20;99.90
57390;DHT22;43217;52.694;6.214;2023-02-01T04:42:56;6.30;99.90
57390;DHT22;43217;52.694;6.214;2023-02-01T04:45:22;6.30;99.90
57390;DHT22;43217;52.694;6.214;2023-02-01T04:47:48;6.30;99.90
57390;DHT22;43217;52.694;6.214;2023-02-01T04:50:14;6.30;99.90
57390;DHT22;43217;52.694;6.214;2023-02-01T04:52:40;6.30;99.90
57390;DHT22;43217;52.694;6.214;2023-02-01T04:55:07;6.30;99.90
57390;DHT22;43217;52.694;6.214;2023-02-01T04:57:32;6.30;99.90
57390;DHT22;43217;52.694;6.214;2023-02-01T04:59:58;6.30;99.90
57390;DHT22;43217;52.694;6.214;2023-02-01T05:02:23;6.30;99.90
57390;DHT22;43217;52.694;6.214;2023-02-01T05:04:49;6.30;99.90
57390;DHT22;43217;52.694;6.214;2023-02-01T05:07:16;6.30;99.90
57390;DHT22;43217;52.694;6.214;2023-02-01T05:09:41;6.30;99.90
57390;DHT22;43217;52.694;6.214;2023-02-01T05:12:09;6.20;99.90
57390;DHT22;43217;52.694;6.214;2023-02-01T05:14:53;6.20;99.90
57390;DHT22;43217;52.694;6.214;2023-02-01T05:17:19;6.20;99.90
57390;DHT22;43217;52.694;6.214;2023-02-01T05:19:44;6.10;99.90
57390;DHT22;43217;52.694;6.214;2023-02-01T05:22:10;6.10;99.90
57390;DHT22;43217;52.694;6.214;2023-02-01T05:24:35;6.10;99.90
57390;DHT22;43217;52.694;6.214;2023-02-01T05:27:01;6.20;99.90
57390;DHT22;43217;52.694;6.214;2023-02-01T05:29:27;6.20;99.90
57390;DHT22;43217;52.694;6.214;2023-02-01T05:31:52;6.20;99.90
57390;DHT22;43217;52.694;6.214;2023-02-01T05:34:18;6.20;99.90
57390;DHT22;43217;52.694;6.214;2023-02-01T05:36:44;6.20;99.90
57390;DHT22;43217;52.694;6.214;2023-02-01T05:39:09;6.30;99.90
57390;DHT22;43217;52.694;6.214;2023-02-01T05:41:35;6.30;99.90
57390;DHT22;43217;52.694;6.214;2023-02-01T05:44:01;6.30;99.90
57390;DHT22;43217;52.694;6.214;2023-02-01T05:46:28;6.30;99.90
57390;DHT22;43217;52.694;6.214;2023-02-01T05:48:53;6.30;99.90
57390;DHT22;43217;52.694;6.214;2023-02-01T05:51:19;6.30;99.90
57390;DHT22;43217;52.694;6.214;2023-02-01T05:53:44;6.40;99.90
57390;DHT22;43217;52.694;6.214;2023-02-01T05:56:10;6.40;99.90
57390;DHT22;43217;52.694;6.214;2023-02-01T05:58:36;6.40;99.90
57390;DHT22;43217;52.694;6.214;2023-02-01T06:01:02;6.40;99.90
57390;DHT22;43217;52.694;6.214;2023-02-01T06:03:28;6.40;99.90
57390;DHT22;43217;52.694;6.214;2023-02-01T06:05:54;6.40;99.90
57390;DHT22;43217;52.694;6.214;2023-02-01T06:08:20;6.40;99.90
57390;DHT22;43217;52.694;6.214;2023-02-01T06:10:45;6.40;99.90
57390;DHT22;43217;52.694;6.214;2023-02-01T06:13:11;6.40;99.90
57390;DHT22;43217;52.694;6.214;2023-02-01T06:15:36;6.40;99.90
57390;DHT22;43217;52.694;6.214;2023-02-01T06:18:07;6.40;99.90
57390;DHT22;43217;52.694;6.214;2023-02-01T06:20:33;6.50;99.90
57390;DHT22;43217;52.694;6.214;2023-02-01T06:22:58;6.50;99.90
57390;DHT22;43217;52.694;6.214;2023-02-01T06:25:24;6.50;99.90
57390;DHT22;43217;52.694;6.214;2023-02-01T06:27:50;6.50;99.90
57390;DHT22;43217;52.694;6.214;2023-02-01T06:30:15;6.50;99.90
57390;DHT22;43217;52.694;6.214;2023-02-01T06:32:41;6.50;99.90
57390;DHT22;43217;52.694;6.214;2023-02-01T06:35:08;6.50;99.90
57390;DHT22;43217;52.694;6.214;2023-02-01T06:37:37;6.50;99.90
57390;DHT22;43217;52.694;6.214;2023-02-01T06:40:03;6.50;99.90
57390;DHT22;43217;52.694;6.214;2023-02-01T06:42:29;6.50;99.90
57390;DHT22;43217;52.694;6.214;2023-02-01T06:44:55;6.50;99.90
57390;DHT22;43217;52.694;6.214;2023-02-01T06:47:20;6.50;99.90
57390;DHT22;43217;52.694;6.214;2023-02-01T06:49:46;6.50;99.90
57390;DHT22;43217;52.694;6.214;2023-02-01T06:52:11;6.50;99.90
57390;DHT22;43217;52.694;6.214;2023-02-01T06:54:37;6.40;99.90
57390;DHT22;43217;52.694;6.214;2023-02-01T06:57:03;6.40;99.90
57390;DHT22;43217;52.694;6.214;2023-02-01T06:59:29;6.50;99.90
57390;DHT22;43217;52.694;6.214;2023-02-01T07:01:54;6.50;99.90
57390;DHT22;43217;52.694;6.214;2023-02-01T07:04:20;6.50;99.90
57390;DHT22;43217;52.694;6.214;2023-02-01T07:06:46;6.50;99.90
57390;DHT22;43217;52.694;6.214;2023-02-01T07:09:11;6.50;99.90
57390;DHT22;43217;52.694;6.214;2023-02-01T07:11:39;6.40;99.90
57390;DHT22;43217;52.694;6.214;2023-02-01T07:14:09;6.40;99.90
57390;DHT22;43217;52.694;6.214;2023-02-01T07:16:35;6.40;99.90
57390;DHT22;43217;52.694;6.214;2023-02-01T07:19:00;6.40;99.90
57390;DHT22;43217;52.694;6.214;2023-02-01T07:21:27;6.40;99.90
57390;DHT22;43217;52.694;6.214;2023-02-01T07:23:54;6.40;99.90
57390;DHT22;43217;52.694;6.214;2023-02-01T07:26:20;6.40;99.90
57390;DHT22;43217;52.694;6.214;2023-02-01T07:28:45;6.40;99.90
57390;DHT22;43217;52.694;6.214;2023-02-01T07:31:14;6.40;99.90
57390;DHT22;43217;52.694;6.214;2023-02-01T07:33:44;6.40;99.90
57390;DHT22;43217;52.694;6.214;2023-02-01T07:36:15;6.40;99.90
57390;DHT22;43217;52.694;6.214;2023-02-01T07:38:41;6.40;99.90
57390;DHT22;43217;52.694;6.214;2023-02-01T07:41:07;6.40;99.90
57390;DHT22;43217;52.694;6.214;2023-02-01T07:43:34;6.40;99.90
57390;DHT22;43217;52.694;6.214;2023-02-01T07:46:00;6.40;99.90
57390;DHT22;43217;52.694;6.214;2023-02-01T07:48:26;6.30;99.90
57390;DHT22;43217;52.694;6.214;2023-02-01T07:51:04;6.30;99.90
57390;DHT22;43217;52.694;6.214;2023-02-01T07:53:32;6.30;99.90
57390;DHT22;43217;52.694;6.214;2023-02-01T07:55:58;6.30;99.90
57390;DHT22;43217;52.694;6.214;2023-02-01T07:58:25;6.20;99.90
57390;DHT22;43217;52.694;6.214;2023-02-01T08:00:50;6.20;99.90
57390;DHT22;43217;52.694;6.214;2023-02-01T08:03:34;6.20;99.90
57390;DHT22;43217;52.694;6.214;2023-02-01T08:06:00;6.20;99.90
57390;DHT22;43217;52.694;6.214;2023-02-01T08:08:26;6.20;99.90
57390;DHT22;43217;52.694;6.214;2023-02-01T08:10:56;6.20;99.90
57390;DHT22;43217;52.694;6.214;2023-02-01T08:13:21;6.30;99.90
57390;DHT22;43217;52.694;6.214;2023-02-01T08:15:47;6.20;99.90
57390;DHT22;43217;52.694;6.214;2023-02-01T08:18:12;6.20;99.90
57390;DHT22;43217;52.694;6.214;2023-02-01T08:20:41;6.20;99.90
57390;DHT22;43217;52.694;6.214;2023-02-01T08:23:09;6.20;99.90
57390;DHT22;43217;52.694;6.214;2023-02-01T08:25:34;6.30;99.90
57390;DHT22;43217;52.694;6.214;2023-02-01T08:28:02;6.30;99.90
57390;DHT22;43217;52.694;6.214;2023-02-01T08:30:27;6.40;99.90
57390;DHT22;43217;52.694;6.214;2023-02-01T08:32:53;6.40;99.90
57390;DHT22;43217;52.694;6.214;2023-02-01T08:35:18;6.40;99.90
57390;DHT22;43217;52.694;6.214;2023-02-01T08:37:44;6.50;99.90
57390;DHT22;43217;52.694;6.214;2023-02-01T08:40:10;6.50;99.90
57390;DHT22;43217;52.694;6.214;2023-02-01T08:42:36;6.50;99.90
57390;DHT22;43217;52.694;6.214;2023-02-01T08:45:24;6.50;99.90
57390;DHT22;43217;52.694;6.214;2023-02-01T08:47:51;6.50;99.90
57390;DHT22;43217;52.694;6.214;2023-02-01T08:50:18;6.50;99.90
57390;DHT22;43217;52.694;6.214;2023-02-01T08:52:43;6.50;99.90
57390;DHT22;43217;52.694;6.214;2023-02-01T08:55:10;6.60;99.90
57390;DHT22;43217;52.694;6.214;2023-02-01T08:57:36;6.60;99.90
57390;DHT22;43217;52.694;6.214;2023-02-01T09:00:03;6.60;99.90
57390;DHT22;43217;52.694;6.214;2023-02-01T09:02:29;6.70;99.90
57390;DHT22;43217;52.694;6.214;2023-02-01T09:04:56;6.60;99.90
57390;DHT22;43217;52.694;6.214;2023-02-01T09:07:22;6.60;99.90
57390;DHT22;43217;52.694;6.214;2023-02-01T09:09:47;6.60;99.90
57390;DHT22;43217;52.694;6.214;2023-02-01T09:12:13;6.60;99.90
57390;DHT22;43217;52.694;6.214;2023-02-01T09:14:39;6.60;99.90
57390;DHT22;43217;52.694;6.214;2023-02-01T09:17:05;6.60;99.90
57390;DHT22;43217;52.694;6.214;2023-02-01T09:19:31;6.60;99.90
57390;DHT22;43217;52.694;6.214;2023-02-01T09:21:57;6.60;99.90
57390;DHT22;43217;52.694;6.214;2023-02-01T09:24:23;6.60;99.90
57390;DHT22;43217;52.694;6.214;2023-02-01T09:26:49;6.60;99.90
57390;DHT22;43217;52.694;6.214;2023-02-01T09:29:14;6.60;99.90
57390;DHT22;43217;52.694;6.214;2023-02-01T09:31:41;6.60;99.90
57390;DHT22;43217;52.694;6.214;2023-02-01T09:34:07;6.60;99.90
57390;DHT22;43217;52.694;6.214;2023-02-01T09:36:33;6.60;99.90
57390;DHT22;43217;52.694;6.214;2023-02-01T09:38:59;6.60;99.90
57390;DHT22;43217;52.694;6.214;2023-02-01T09:47:01;6.60;99.90
57390;DHT22;43217;52.694;6.214;2023-02-01T09:49:33;6.60;99.90
57390;DHT22;43217;52.694;6.214;2023-02-01T09:52:04;6.60;99.90
57390;DHT22;43217;52.694;6.214;2023-02-01T09:54:43;6.60;99.90
57390;DHT22;43217;52.694;6.214;2023-02-01T09:57:16;6.60;99.90
57390;DHT22;43217;52.694;6.214;2023-02-01T09:59:58;6.60;99.90
57390;DHT22;43217;52.694;6.214;2023-02-01T10:02:26;6.60;99.90
57390;DHT22;43217;52.694;6.214;2023-02-01T10:04:56;6.60;99.90
57390;DHT22;43217;52.694;6.214;2023-02-01T10:10:30;6.60;99.90
57390;DHT22;43217;52.694;6.214;2023-02-01T10:13:28;6.60;99.90
57390;DHT22;43217;52.694;6.214;2023-02-01T10:16:16;6.60;99.90
57390;DHT22;43217;52.694;6.214;2023-02-01T10:21:58;6.70;99.90
57390;DHT22;43217;52.694;6.214;2023-02-01T10:27:22;6.70;99.90
57390;DHT22;43217;52.694;6.214;2023-02-01T10:29:59;6.70;99.90
57390;DHT22;43217;52.694;6.214;2023-02-01T10:32:31;6.70;99.90
57390;DHT22;43217;52.694;6.214;2023-02-01T10:35:08;6.70;99.90
57390;DHT22;43217;52.694;6.214;2023-02-01T10:37:35;6.70;99.90
57390;DHT22;43217;52.694;6.214;2023-02-01T10:40:22;6.70;99.90
57390;DHT22;43217;52.694;6.214;2023-02-01T10:42:56;6.80;99.90
57390;DHT22;43217;52.694;6.214;2023-02-01T10:45:26;6.70;99.90
57390;DHT22;43217;52.694;6.214;2023-02-01T10:47:54;6.70;99.90
57390;DHT22;43217;52.694;6.214;2023-02-01T10:50:47;6.60;99.90
57390;DHT22;43217;52.694;6.214;2023-02-01T10:53:18;6.60;99.90
57390;DHT22;43217;52.694;6.214;2023-02-01T10:55:49;6.60;99.90
57390;DHT22;43217;52.694;6.214;2023-02-01T10:58:20;6.50;99.90
57390;DHT22;43217;52.694;6.214;2023-02-01T11:03:40;6.60;99.90
57390;DHT22;43217;52.694;6.214;2023-02-01T11:08:56;6.70;99.90
57390;DHT22;43217;52.694;6.214;2023-02-01T11:11:22;6.70;99.90
57390;DHT22;43217;52.694;6.214;2023-02-01T11:14:00;6.70;99.90
57390;DHT22;43217;52.694;6.214;2023-02-01T11:16:36;6.80;99.90
57390;DHT22;43217;52.694;6.214;2023-02-01T11:19:02;6.80;99.90
57390;DHT22;43217;52.694;6.214;2023-02-01T11:21:28;6.80;99.90
57390;DHT22;43217;52.694;6.214;2023-02-01T11:23:54;6.90;99.90
57390;DHT22;43217;52.694;6.214;2023-02-01T11:26:25;6.90;99.90
57390;DHT22;43217;52.694;6.214;2023-02-01T11:29:05;7.00;99.90
57390;DHT22;43217;52.694;6.214;2023-02-01T11:31:35;7.00;99.90
57390;DHT22;43217;52.694;6.214;2023-02-01T11:34:37;7.10;99.90
57390;DHT22;43217;52.694;6.214;2023-02-01T11:37:04;7.10;99.90
57390;DHT22;43217;52.694;6.214;2023-02-01T11:39:33;7.10;99.90
57390;DHT22;43217;52.694;6.214;2023-02-01T11:42:12;7.10;99.90
57390;DHT22;43217;52.694;6.214;2023-02-01T11:44:40;7.10;99.90
57390;DHT22;43217;52.694;6.214;2023-02-01T11:49:52;7.00;99.90
57390;DHT22;43217;52.694;6.214;2023-02-01T11:52:31;7.00;99.90
57390;DHT22;43217;52.694;6.214;2023-02-01T11:55:33;6.90;99.90
57390;DHT22;43217;52.694;6.214;2023-02-01T11:58:23;6.90;99.90
57390;DHT22;43217;52.694;6.214;2023-02-01T12:04:03;6.80;99.90
57390;DHT22;43217;52.694;6.214;2023-02-01T12:20:21;6.90;99.90
57390;DHT22;43217;52.694;6.214;2023-02-01T12:39:21;6.80;99.90
57390;DHT22;43217;52.694;6.214;2023-02-01T12:42:04;6.90;99.90
57390;DHT22;43217;52.694;6.214;2023-02-01T12:50:19;7.00;99.90
57390;DHT22;43217;52.694;6.214;2023-02-01T12:52:52;7.00;99.90
57390;DHT22;43217;52.694;6.214;2023-02-01T12:55:24;7.00;99.90
57390;DHT22;43217;52.694;6.214;2023-02-01T12:57:57;7.00;99.90
57390;DHT22;43217;52.694;6.214;2023-02-01T13:00:32;7.00;99.90
57390;DHT22;43217;52.694;6.214;2023-02-01T13:03:25;7.10;99.90
57390;DHT22;43217;52.694;6.214;2023-02-01T13:09:09;7.10;99.90
57390;DHT22;43217;52.694;6.214;2023-02-01T13:11:39;7.20;99.90
57390;DHT22;43217;52.694;6.214;2023-02-01T13:14:36;7.30;99.90
57390;DHT22;43217;52.694;6.214;2023-02-01T13:17:10;7.40;99.90
57390;DHT22;43217;52.694;6.214;2023-02-01T13:22:43;7.50;99.90
57390;DHT22;43217;52.694;6.214;2023-02-01T13:27:36;7.60;99.90
57390;DHT22;43217;52.694;6.214;2023-02-01T13:30:03;7.60;99.90
57390;DHT22;43217;52.694;6.214;2023-02-01T13:33:05;7.60;99.90
57390;DHT22;43217;52.694;6.214;2023-02-01T13:36:10;7.60;99.90
57390;DHT22;43217;52.694;6.214;2023-02-01T13:44:23;7.70;99.90
57390;DHT22;43217;52.694;6.214;2023-02-01T13:46:51;7.60;99.90
57390;DHT22;43217;52.694;6.214;2023-02-01T13:49:26;7.60;99.90
57390;DHT22;43217;52.694;6.214;2023-02-01T13:51:55;7.70;99.90
57390;DHT22;43217;52.694;6.214;2023-02-01T13:56:56;7.80;99.90
57390;DHT22;43217;52.694;6.214;2023-02-01T14:05:54;8.00;99.90
57390;DHT22;43217;52.694;6.214;2023-02-01T14:10:54;8.00;99.90
57390;DHT22;43217;52.694;6.214;2023-02-01T14:13:31;8.00;99.90
57390;DHT22;43217;52.694;6.214;2023-02-01T14:24:02;7.90;99.90
57390;DHT22;43217;52.694;6.214;2023-02-01T14:31:52;7.90;99.90
57390;DHT22;43217;52.694;6.214;2023-02-01T14:34:33;7.90;99.90
57390;DHT22;43217;52.694;6.214;2023-02-01T14:37:06;7.90;99.90
57390;DHT22;43217;52.694;6.214;2023-02-01T14:39:33;7.90;99.90
57390;DHT22;43217;52.694;6.214;2023-02-01T14:42:13;7.90;99.90
57390;DHT22;43217;52.694;6.214;2023-02-01T14:44:40;7.90;99.90
57390;DHT22;43217;52.694;6.214;2023-02-01T14:47:07;7.90;99.90
57390;DHT22;43217;52.694;6.214;2023-02-01T14:52:20;7.90;99.90
57390;DHT22;43217;52.694;6.214;2023-02-01T14:54:54;7.90;99.90
57390;DHT22;43217;52.694;6.214;2023-02-01T14:57:23;7.90;99.90
57390;DHT22;43217;52.694;6.214;2023-02-01T14:59:58;7.90;99.90
57390;DHT22;43217;52.694;6.214;2023-02-01T15:02:26;7.90;99.90
57390;DHT22;43217;52.694;6.214;2023-02-01T15:04:56;7.90;99.90
57390;DHT22;43217;52.694;6.214;2023-02-01T15:07:24;7.90;99.90
57390;DHT22;43217;52.694;6.214;2023-02-01T15:09:52;7.90;99.90
57390;DHT22;43217;52.694;6.214;2023-02-01T15:12:23;7.90;99.90
57390;DHT22;43217;52.694;6.214;2023-02-01T15:17:37;7.90;99.90
57390;DHT22;43217;52.694;6.214;2023-02-01T15:22:37;7.90;99.90
57390;DHT22;43217;52.694;6.214;2023-02-01T15:25:02;7.90;99.90
57390;DHT22;43217;52.694;6.214;2023-02-01T15:27:29;7.80;99.90
57390;DHT22;43217;52.694;6.214;2023-02-01T15:30:07;7.80;99.90
57390;DHT22;43217;52.694;6.214;2023-02-01T15:32:36;7.80;99.90
57390;DHT22;43217;52.694;6.214;2023-02-01T15:35:04;7.80;99.90
57390;DHT22;43217;52.694;6.214;2023-02-01T15:37:33;7.70;99.90
57390;DHT22;43217;52.694;6.214;2023-02-01T15:40:19;7.70;99.90
57390;DHT22;43217;52.694;6.214;2023-02-01T15:42:58;7.70;99.90
57390;DHT22;43217;52.694;6.214;2023-02-01T15:45:31;7.60;99.90
57390;DHT22;43217;52.694;6.214;2023-02-01T15:47:58;7.60;99.90
57390;DHT22;43217;52.694;6.214;2023-02-01T15:50:26;7.60;99.90
57390;DHT22;43217;52.694;6.214;2023-02-01T15:52:53;7.60;99.90
57390;DHT22;43217;52.694;6.214;2023-02-01T15:55:25;7.50;99.90
57390;DHT22;43217;52.694;6.214;2023-02-01T15:57:55;7.50;99.90
57390;DHT22;43217;52.694;6.214;2023-02-01T16:00:27;7.50;99.90
57390;DHT22;43217;52.694;6.214;2023-02-01T16:03:04;7.40;99.90
57390;DHT22;43217;52.694;6.214;2023-02-01T16:10:46;7.30;99.90
57390;DHT22;43217;52.694;6.214;2023-02-01T16:13:14;7.30;99.90
57390;DHT22;43217;52.694;6.214;2023-02-01T16:15:39;7.20;99.90
57390;DHT22;43217;52.694;6.214;2023-02-01T16:18:06;7.20;99.90
57390;DHT22;43217;52.694;6.214;2023-02-01T16:20:34;7.20;99.90
57390;DHT22;43217;52.694;6.214;2023-02-01T16:23:01;7.10;99.90
57390;DHT22;43217;52.694;6.214;2023-02-01T16:25:27;7.10;99.90
57390;DHT22;43217;52.694;6.214;2023-02-01T16:27:55;7.10;99.90
57390;DHT22;43217;52.694;6.214;2023-02-01T16:30:21;7.00;99.90
57390;DHT22;43217;52.694;6.214;2023-02-01T16:32:56;7.00;99.90
57390;DHT22;43217;52.694;6.214;2023-02-01T16:35:30;7.00;99.90
57390;DHT22;43217;52.694;6.214;2023-02-01T16:38:04;7.00;99.90
57390;DHT22;43217;52.694;6.214;2023-02-01T16:40:34;7.00;99.90
57390;DHT22;43217;52.694;6.214;2023-02-01T16:43:00;7.00;99.90
57390;DHT22;43217;52.694;6.214;2023-02-01T16:45:25;6.90;99.90
57390;DHT22;43217;52.694;6.214;2023-02-01T16:47:54;6.90;99.90
57390;DHT22;43217;52.694;6.214;2023-02-01T16:50:24;6.90;99.90
57390;DHT22;43217;52.694;6.214;2023-02-01T16:52:51;6.90;99.90
57390;DHT22;43217;52.694;6.214;2023-02-01T16:55:19;6.80;99.90
57390;DHT22;43217;52.694;6.214;2023-02-01T16:57:46;6.80;99.90
57390;DHT22;43217;52.694;6.214;2023-02-01T17:00:14;6.80;99.90
57390;DHT22;43217;52.694;6.214;2023-02-01T17:02:43;6.80;99.90
57390;DHT22;43217;52.694;6.214;2023-02-01T17:05:11;6.70;99.90
57390;DHT22;43217;52.694;6.214;2023-02-01T17:07:38;6.70;99.90
57390;DHT22;43217;52.694;6.214;2023-02-01T17:10:06;6.70;99.90
57390;DHT22;43217;52.694;6.214;2023-02-01T17:12:32;6.70;99.90
57390;DHT22;43217;52.694;6.214;2023-02-01T17:14:59;6.80;99.90
57390;DHT22;43217;52.694;6.214;2023-02-01T17:17:33;6.70;99.90
57390;DHT22;43217;52.694;6.214;2023-02-01T17:20:00;6.70;99.90
57390;DHT22;43217;52.694;6.214;2023-02-01T17:22:26;6.70;99.90
57390;DHT22;43217;52.694;6.214;2023-02-01T17:24:52;6.70;99.90
57390;DHT22;43217;52.694;6.214;2023-02-01T17:27:18;6.60;99.90
57390;DHT22;43217;52.694;6.214;2023-02-01T17:29:44;6.60;99.90
57390;DHT22;43217;52.694;6.214;2023-02-01T17:32:20;6.60;99.90
57390;DHT22;43217;52.694;6.214;2023-02-01T17:34:47;6.60;99.90
57390;DHT22;43217;52.694;6.214;2023-02-01T17:37:33;6.60;99.90
57390;DHT22;43217;52.694;6.214;2023-02-01T17:40:00;6.60;99.90
57390;DHT22;43217;52.694;6.214;2023-02-01T17:42:28;6.60;99.90
57390;DHT22;43217;52.694;6.214;2023-02-01T17:44:59;6.60;99.90
57390;DHT22;43217;52.694;6.214;2023-02-01T17:47:26;6.60;99.90
57390;DHT22;43217;52.694;6.214;2023-02-01T17:49:51;6.50;99.90
57390;DHT22;43217;52.694;6.214;2023-02-01T17:52:22;6.50;99.90
57390;DHT22;43217;52.694;6.214;2023-02-01T17:54:48;6.50;99.90
57390;DHT22;43217;52.694;6.214;2023-02-01T17:57:15;6.40;99.90
57390;DHT22;43217;52.694;6.214;2023-02-01T17:59:41;6.40;99.90
57390;DHT22;43217;52.694;6.214;2023-02-01T18:04:44;6.30;99.90
57390;DHT22;43217;52.694;6.214;2023-02-01T18:07:09;6.30;99.90
57390;DHT22;43217;52.694;6.214;2023-02-01T18:09:35;6.20;99.90
57390;DHT22;43217;52.694;6.214;2023-02-01T18:12:03;6.20;99.90
57390;DHT22;43217;52.694;6.214;2023-02-01T18:14:29;6.20;99.90
57390;DHT22;43217;52.694;6.214;2023-02-01T18:16:54;6.20;99.90
57390;DHT22;43217;52.694;6.214;2023-02-01T18:19:20;6.20;99.90
57390;DHT22;43217;52.694;6.214;2023-02-01T18:21:46;6.20;99.90
57390;DHT22;43217;52.694;6.214;2023-02-01T18:24:13;6.10;99.90
57390;DHT22;43217;52.694;6.214;2023-02-01T18:26:39;6.10;99.90
57390;DHT22;43217;52.694;6.214;2023-02-01T18:29:05;6.10;99.90
57390;DHT22;43217;52.694;6.214;2023-02-01T18:31:31;6.10;99.90
57390;DHT22;43217;52.694;6.214;2023-02-01T18:33:58;6.20;99.90